Friday, July 20, 2018, 11:35 AM CDT
Back to Local

KHLC, Hill City Municipal Airport

Location: Hill City, KS, United States Lat: 39.367
Local Time: 11:35 AM CDT (16:35 GMT) Lon: -99.833
Time Zone: US/Central Elev: 2230 ft

Show me the last for .
Show Decoded

2018-07-20 10:53 METAR KHLC 201553Z AUTO 14007KT 10SM CLR 31/22 A2993 RMK AO2 SLP107 T03110217
                 TSNO =
2018-07-20 09:53 METAR KHLC 201453Z AUTO 12006KT 10SM CLR 28/22 A2994 RMK AO2 SLP112 T02830222
                 50004 TSNO =
2018-07-20 08:53 METAR KHLC 201353Z AUTO 09006KT 8SM CLR 25/22 A2995 RMK AO2 SLP114 T02500222
                 TSNO =
2018-07-20 07:53 METAR KHLC 201253Z AUTO 10004KT 6SM BR CLR 23/22 A2994 RMK AO2 SLP113 T02280217
                 TSNO =
2018-07-20 06:53 METAR KHLC 201153Z AUTO 00000KT 6SM BR CLR 22/21 A2993 RMK AO2 SLP108 70017
                 T02170206 10239 20211 53004 TSNO =
2018-07-20 05:53 METAR KHLC 201053Z AUTO 05003KT 8SM CLR 22/21 A2991 RMK AO2 SLP102 T02170206
                 TSNO =
2018-07-20 04:53 METAR KHLC 200953Z AUTO 00000KT 9SM CLR 22/21 A2992 RMK AO2 SLP104 T02170211
                 TSNO =
2018-07-20 03:53 METAR KHLC 200853Z AUTO 06005KT 9SM CLR 23/22 A2992 RMK AO2 SLP103 T02280217
                 58002 TSNO =
2018-07-20 02:53 METAR KHLC 200753Z AUTO 05004KT 8SM CLR 23/22 A2993 RMK AO2 SLP107 T02280217
                 TSNO =
2018-07-20 01:53 METAR KHLC 200653Z AUTO 06004KT 10SM CLR 23/22 A2992 RMK AO2 SLP104 T02330222
                 TSNO =
2018-07-20 00:53 METAR KHLC 200553Z AUTO 00000KT 10SM CLR 24/22 A2992 RMK AO2 SLP103 T02390222
                 10333 20233 403500206 51005 TSNO =
2018-07-19 23:53 METAR KHLC 200453Z AUTO 00000KT 10SM CLR 24/23 A2992 RMK AO2 SLP103 T02440228
                 TSNO =
2018-07-19 22:53 METAR KHLC 200353Z AUTO 08005KT 10SM CLR 26/23 A2992 RMK AO2 SLP103 T02560228
                 TSNO =
2018-07-19 21:53 METAR KHLC 200253Z AUTO 13005KT 10SM CLR 27/24 A2991 RMK AO2 SLP100 T02670239
                 53012 TSNO =
2018-07-19 20:53 METAR KHLC 200153Z AUTO 09007KT 10SM CLR 28/24 A2989 RMK AO2 SLP093 T02830239
                 TSNO =
2018-07-19 19:53 METAR KHLC 200053Z AUTO 09010KT 10SM CLR 31/24 A2987 RMK AO2 SLP088 T03110239
                 TSNO =
2018-07-19 18:53 METAR KHLC 192353Z AUTO 09011KT 10SM CLR 33/24 A2987 RMK AO2 SLP086 60017
                 T03330244 10350 20267 56007 TSNO =
2018-07-19 17:53 METAR KHLC 192253Z AUTO 11007KT 10SM CLR 34/24 A2987 RMK AO2 SLP087 T03390239
                 TSNO =
2018-07-19 16:53 METAR KHLC 192153Z AUTO 10009KT 10SM CLR 34/24 A2988 RMK AO2 SLP091 T03390239
                 TSNO =
2018-07-19 15:53 METAR KHLC 192053Z AUTO 10008KT 10SM FEW110 32/24 A2989 RMK AO2 SLP096 60017
                 T03220239 56006 TSNO =
2018-07-19 14:53 METAR KHLC 191953Z AUTO 09009KT 10SM CLR 31/24 A2990 RMK AO2 PK WND 22028/1911
                 RAB05E26 SLP097 P0017 T03110239 TSNO =
2018-07-19 14:22 METAR KHLC 191922Z AUTO 10008KT 4SM -RA SCT023 BKN110 27/21 A2990 RMK AO2 PK WND
                 22028/1911 RAB05 P0017 T02720211 TSNO =
2018-07-19 14:20 METAR KHLC 191920Z AUTO 09007G28KT 1 3/4SM -RA SCT025 SCT035 BKN110 27/21 A2990
                 RMK AO2 PK WND 22028/1911 RAB05 P0017 T02720211 TSNO =
2018-07-19 14:12 METAR KHLC 191912Z AUTO 20017G28KT 3/4SM +RA SCT032 BKN110 28/22 A2990 RMK AO2
                 PK WND 22028/1911 RAB05 P0016 T02780217 TSNO =
2018-07-19 14:09 METAR KHLC 191909Z AUTO 30009G14KT 240V330 1 1/2SM +RA FEW032 SCT110 30/22 A2994
                 RMK AO2 RAB05 PRESRR P0010 T03000222 TSNO =
2018-07-19 13:53 METAR KHLC 191853Z AUTO 00000KT 10SM FEW120 35/21 A2988 RMK AO2 SLP090 T03500206
                 TSNO =
2018-07-19 12:53 METAR KHLC 191753Z AUTO 00000KT 10SM CLR 34/21 A2991 RMK AO2 SLP100 T03390206
                 10339 20228 55007 TSNO =
2018-07-19 11:53 METAR KHLC 191653Z AUTO 26007KT 240V300 10SM CLR 33/22 A2991 RMK AO2 SLP100
                 T03330222 TSNO =

Support USWX by starting your Amazon purchase here.